Hanover Park, Illinois
Current Conditions -  °F | °C
As of 8:52 PM on Thursday 27 Nov 2014 (Local Time) from KDPA Reporting Station
Clear Clear  
Wind Chill: 15°   Ceiling: Unl
Heat Index: 15°   Visibility: 10mi
Dew Point:   Wind: 0mph
Humidity: 74%   Direction: NA
Pressure: 30.39"   Gusts: NA
Location:  41.99°N, 88.16°W
Report Text: KDPA 280252Z 00000KT 10SM CLR M09/M13 A3039 RMK AO2 SLP303 60000 T10941133 56003
Loading
Personal Weather Stations






























Interactive Weather Map New forecast layout! Learn more

10-Day Weather Forecast

Advertisements
Track Severe Weather on mobile